Time;durP1;ratioP1;P1;durP2;ratioP2;P2;SDS_P1;SDS_P2;PMS_P1;PMS_P2;Temp;Humidity;BMP_temperature;BMP_pressure;BME280_temperature;BME280_humidity;BME280_pressure;Samples;Min_cycle;Max_cycle;Signal;HPM_P1;HPM_P2
2023/03/22 00:00:54;;;;;;;5.68;2.75;;;5.30;99.90;;;;;;5054141;28;20112;-78
2023/03/22 00:03:22;;;;;;;8.55;2.40;;;5.30;99.90;;;;;;5053469;28;20025;-77
2023/03/22 00:05:48;;;;;;;4.25;2.22;;;5.30;99.90;;;;;;5055048;28;20029;-78
2023/03/22 00:08:13;;;;;;;5.93;2.80;;;5.30;99.90;;;;;;5054681;28;20028;-77
2023/03/22 00:10:40;;;;;;;6.40;2.67;;;5.30;99.90;;;;;;5055127;28;20047;-76
2023/03/22 00:13:08;;;;;;;5.00;2.70;;;5.30;99.90;;;;;;5053934;28;20503;-78
2023/03/22 00:15:35;;;;;;;6.13;2.80;;;5.30;99.90;;;;;;5052973;28;20068;-78
2023/03/22 00:18:02;;;;;;;4.30;2.50;;;5.20;99.90;;;;;;5053058;28;20025;-78
2023/03/22 00:20:34;;;;;;;4.63;2.58;;;5.20;99.90;;;;;;5053440;28;20033;-77
2023/03/22 00:23:00;;;;;;;2.45;2.20;;;5.10;99.90;;;;;;5054762;28;20021;-78
2023/03/22 00:25:26;;;;;;;3.88;2.63;;;5.10;99.90;;;;;;5053888;28;20443;-78
2023/03/22 00:27:52;;;;;;;6.45;2.65;;;5.00;99.90;;;;;;5053159;28;20500;-77
2023/03/22 00:30:17;;;;;;;2.95;2.30;;;5.00;99.90;;;;;;5054545;28;20021;-77
2023/03/22 00:32:43;;;;;;;4.60;2.63;;;5.00;99.90;;;;;;5055337;28;20033;-78
2023/03/22 00:35:10;;;;;;;4.38;2.47;;;5.00;99.90;;;;;;5055598;28;20100;-78
2023/03/22 00:37:37;;;;;;;2.88;2.33;;;5.00;99.90;;;;;;5053120;28;20555;-77
2023/03/22 00:40:11;;;;;;;3.13;2.10;;;5.00;99.90;;;;;;5054920;28;20104;-76
2023/03/22 00:42:38;;;;;;;6.63;2.70;;;5.00;99.90;;;;;;5054385;28;20029;-78
2023/03/22 00:45:06;;;;;;;5.28;2.58;;;5.00;99.90;;;;;;5057116;28;20029;-77
2023/03/22 00:47:32;;;;;;;3.35;2.35;;;4.90;99.90;;;;;;5057000;28;20025;-78
2023/03/22 00:49:57;;;;;;;4.40;2.00;;;4.90;99.90;;;;;;5057552;28;20052;-79
2023/03/22 00:52:24;;;;;;;5.78;2.40;;;4.90;99.90;;;;;;5058146;28;20035;-77
2023/03/22 00:54:50;;;;;;;3.97;2.80;;;4.70;99.90;;;;;;5058009;28;20030;-77
2023/03/22 00:57:16;;;;;;;2.58;2.25;;;4.60;99.90;;;;;;5057149;28;20405;-77
2023/03/22 00:59:42;;;;;;;3.65;2.35;;;4.60;99.90;;;;;;5057740;28;20035;-77
2023/03/22 01:02:12;;;;;;;3.35;2.10;;;4.60;99.90;;;;;;5057554;28;20029;-78
2023/03/22 01:04:44;;;;;;;4.07;2.55;;;4.50;99.90;;;;;;5058449;28;20432;-78
2023/03/22 01:07:10;;;;;;;3.08;2.30;;;4.40;99.90;;;;;;5057224;28;20029;-77
2023/03/22 01:09:35;;;;;;;5.90;2.33;;;4.30;99.90;;;;;;5058014;28;20021;-77
2023/03/22 01:12:01;;;;;;;4.72;3.05;;;4.30;99.90;;;;;;5057839;28;20025;-76
2023/03/22 01:14:28;;;;;;;2.85;2.25;;;4.30;99.90;;;;;;5056450;28;20056;-76
2023/03/22 01:16:56;;;;;;;5.75;3.35;;;4.30;99.90;;;;;;5056497;28;20033;-78
2023/03/22 01:19:22;;;;;;;3.25;2.22;;;4.30;99.90;;;;;;5056493;28;20025;-78
2023/03/22 01:21:48;;;;;;;7.38;2.42;;;4.40;99.90;;;;;;5058246;28;20021;-78
2023/03/22 01:24:14;;;;;;;6.57;2.72;;;4.40;99.90;;;;;;5058110;28;20148;-76
2023/03/22 01:26:40;;;;;;;4.45;2.50;;;4.40;99.90;;;;;;5056599;28;20021;-78
2023/03/22 01:29:05;;;;;;;4.45;2.22;;;4.50;99.90;;;;;;5056271;28;20031;-76
2023/03/22 01:31:31;;;;;;;5.18;2.33;;;4.50;99.90;;;;;;5056470;28;20112;-78
2023/03/22 01:33:56;;;;;;;5.20;2.40;;;4.50;99.90;;;;;;5058532;28;20078;-77
2023/03/22 01:36:22;;;;;;;3.42;2.15;;;4.40;99.90;;;;;;5058135;28;20079;-78
2023/03/22 01:38:48;;;;;;;4.47;2.35;;;4.50;99.90;;;;;;5056659;28;20021;-77
2023/03/22 01:41:15;;;;;;;6.07;2.60;;;4.40;99.90;;;;;;5058500;28;20585;-77
2023/03/22 01:43:41;;;;;;;4.97;2.35;;;4.40;99.90;;;;;;5058953;28;20025;-77
2023/03/22 01:46:07;;;;;;;3.85;2.25;;;4.30;99.90;;;;;;5055700;28;20036;-78
2023/03/22 01:48:40;;;;;;;3.92;2.33;;;4.20;99.90;;;;;;5057487;28;20163;-78
2023/03/22 01:51:12;;;;;;;3.72;2.67;;;4.10;99.90;;;;;;5057846;28;20017;-77
2023/03/22 01:53:55;;;;;;;4.18;2.38;;;4.00;99.90;;;;;;5057994;28;20491;-77
2023/03/22 01:56:24;;;;;;;4.15;2.50;;;4.00;99.90;;;;;;5056346;28;20036;-77
2023/03/22 01:58:50;;;;;;;4.93;2.60;;;4.00;99.90;;;;;;5056396;28;20057;-77
2023/03/22 02:01:17;;;;;;;3.80;1.90;;;4.00;99.90;;;;;;5056604;28;20033;-77
2023/03/22 02:04:22;;;;;;;4.68;2.35;;;4.10;99.90;;;;;;5056423;28;20025;-77
2023/03/22 02:06:53;;;;;;;2.88;1.92;;;4.00;99.90;;;;;;5056440;28;20370;-78
2023/03/22 02:09:20;;;;;;;2.92;2.58;;;3.90;99.90;;;;;;5057859;28;20055;-78
2023/03/22 02:12:16;;;;;;;3.47;2.28;;;3.80;99.90;;;;;;5057697;28;20029;-78
2023/03/22 02:15:14;;;;;;;4.25;2.40;;;3.70;99.90;;;;;;5057661;28;20073;-77
2023/03/22 02:18:05;;;;;;;6.07;2.47;;;3.60;99.90;;;;;;5057353;28;20025;-78
2023/03/22 02:20:54;;;;;;;6.43;1.83;;;3.50;99.90;;;;;;5063971;28;20035;-77
2023/03/22 02:23:37;;;;;;;3.28;1.92;;;3.40;99.90;;;;;;5078007;28;20076;-75
2023/03/22 02:26:27;;;;;;;4.50;2.53;;;3.40;99.90;;;;;;5071384;28;20029;-76
2023/03/22 02:29:07;;;;;;;2.80;2.30;;;3.40;99.90;;;;;;5059679;28;20029;-76
2023/03/22 02:31:55;;;;;;;2.83;2.28;;;3.50;99.90;;;;;;5059173;28;20024;-78
2023/03/22 02:35:05;;;;;;;5.32;2.20;;;3.60;99.90;;;;;;5057276;28;20063;-75
2023/03/22 02:37:53;;;;;;;2.67;1.52;;;3.50;99.90;;;;;;5037827;28;20052;-77
2023/03/22 02:40:41;;;;;;;8.77;3.10;;;3.60;99.90;;;;;;5038513;28;20025;-78
2023/03/22 02:43:37;;;;;;;4.57;1.88;;;3.50;99.90;;;;;;5068453;28;20037;-78
2023/03/22 02:46:23;;;;;;;4.53;2.35;;;3.60;99.90;;;;;;5055556;28;20040;-77
2023/03/22 02:52:16;;;;;;;2.80;2.08;;;3.50;99.90;;;;;;5120514;22;20072;-77
2023/03/22 02:55:00;;;;;;;4.40;2.42;;;3.40;99.90;;;;;;5051632;28;20079;-77
2023/03/22 02:57:45;;;;;;;1.83;1.55;;;3.70;99.90;;;;;;5051692;28;20025;-78
2023/03/22 03:00:13;;;;;;;3.13;2.20;;;3.50;99.90;;;;;;5059096;28;20024;-78
2023/03/22 03:02:44;;;;;;;3.50;2.03;;;3.60;99.90;;;;;;5071595;28;20039;-78
2023/03/22 03:05:12;;;;;;;2.55;2.35;;;3.50;99.90;;;;;;5071485;28;20051;-78
2023/03/22 03:07:39;;;;;;;2.88;2.40;;;3.50;99.90;;;;;;5072861;28;20043;-78
2023/03/22 03:10:06;;;;;;;4.22;2.28;;;5.10;99.90;;;;;;5072676;28;20021;-78
2023/03/22 03:12:32;;;;;;;5.05;2.40;;;3.60;99.90;;;;;;5072736;28;20020;-77
2023/03/22 03:14:57;;;;;;;6.35;2.03;;;3.40;99.90;;;;;;5071444;28;20023;-78
2023/03/22 03:18:01;;;;;;;3.28;2.53;;;3.50;99.90;;;;;;5072122;28;20528;-78
2023/03/22 03:20:35;;;;;;;2.35;2.17;;;2.50;99.90;;;;;;5071314;28;20059;-78
2023/03/22 03:23:23;;;;;;;3.35;2.17;;;3.40;99.90;;;;;;5071303;28;20024;-78
2023/03/22 03:26:02;;;;;;;4.13;2.60;;;3.30;99.90;;;;;;5071348;28;20035;-78
2023/03/22 03:28:42;;;;;;;6.85;2.97;;;3.60;99.90;;;;;;5071096;28;20021;-78
2023/03/22 03:31:24;;;;;;;4.90;2.85;;;5.30;99.90;;;;;;5071280;28;20036;-78
2023/03/22 03:34:12;;;;;;;8.02;3.00;;;3.80;99.90;;;;;;5071441;28;20025;-78
2023/03/22 03:36:43;;;;;;;2.53;2.22;;;3.60;99.90;;;;;;5072414;28;20530;-78
2023/03/22 03:39:12;;;;;;;3.00;2.35;;;3.40;99.90;;;;;;5072556;28;20033;-78
2023/03/22 03:41:41;;;;;;;4.35;2.25;;;3.50;99.90;;;;;;5074222;28;20059;-78
2023/03/22 03:44:07;;;;;;;3.60;2.42;;;3.50;99.90;;;;;;5071197;28;20054;-79
2023/03/22 03:46:33;;;;;;;5.63;2.38;;;3.40;99.90;;;;;;5070955;28;20119;-78
2023/03/22 03:49:01;;;;;;;3.75;2.05;;;3.30;99.90;;;;;;5070950;28;20039;-78
2023/03/22 03:51:27;;;;;;;3.17;2.13;;;3.40;99.90;;;;;;5070870;28;20024;-78
2023/03/22 03:53:53;;;;;;;3.90;2.22;;;3.50;99.90;;;;;;5072360;28;20028;-79
2023/03/22 03:56:19;;;;;;;3.13;2.00;;;3.50;99.90;;;;;;5071075;28;20024;-78
2023/03/22 03:58:45;;;;;;;6.57;2.00;;;3.40;99.90;;;;;;5071043;28;20031;-78
2023/03/22 04:01:11;;;;;;;3.92;2.45;;;3.00;99.90;;;;;;5071057;28;20028;-78
2023/03/22 04:03:37;;;;;;;2.58;2.33;;;3.40;99.90;;;;;;5071037;28;20024;-78
2023/03/22 04:06:03;;;;;;;3.47;2.40;;;3.80;99.90;;;;;;5070963;28;20024;-78
2023/03/22 04:08:28;;;;;;;2.15;2.00;;;3.60;99.90;;;;;;5071989;28;20036;-79
2023/03/22 04:10:54;;;;;;;3.92;2.17;;;3.40;99.90;;;;;;5070837;28;20107;-78
2023/03/22 04:13:20;;;;;;;3.60;2.08;;;3.50;99.90;;;;;;5071004;28;20017;-78
2023/03/22 04:15:51;;;;;;;9.18;2.67;;;3.00;99.90;;;;;;5071975;28;20020;-78
2023/03/22 04:18:16;;;;;;;3.85;2.03;;;3.50;99.90;;;;;;5073480;28;20020;-78
2023/03/22 04:20:45;;;;;;;2.60;2.30;;;3.80;99.90;;;;;;5074727;28;20103;-77
2023/03/22 04:23:11;;;;;;;5.60;2.50;;;3.80;99.90;;;;;;5074624;28;20032;-77
2023/03/22 04:25:37;;;;;;;2.53;2.22;;;3.90;99.90;;;;;;5075474;28;20101;-78
2023/03/22 04:28:03;;;;;;;7.00;2.67;;;3.70;99.90;;;;;;5074433;28;20558;-78
2023/03/22 04:30:34;;;;;;;2.50;2.30;;;2.50;99.90;;;;;;5075509;28;20023;-78
2023/03/22 04:33:05;;;;;;;7.80;2.22;;;3.70;99.90;;;;;;5074680;28;20027;-78
2023/03/22 04:35:33;;;;;;;9.45;3.05;;;3.70;99.90;;;;;;5074527;28;20031;-78
2023/03/22 04:38:00;;;;;;;2.35;1.90;;;4.10;99.90;;;;;;5074495;28;20511;-78
2023/03/22 04:40:30;;;;;;;2.88;2.03;;;3.50;99.90;;;;;;5078031;28;20055;-79
2023/03/22 04:42:57;;;;;;;3.85;2.53;;;3.80;99.90;;;;;;5079415;28;20016;-79
2023/03/22 04:45:25;;;;;;;3.75;2.70;;;3.70;99.90;;;;;;5078565;28;20052;-79
2023/03/22 04:47:51;;;;;;;3.13;2.22;;;3.60;99.90;;;;;;5075416;28;20385;-79
2023/03/22 04:50:17;;;;;;;4.47;2.80;;;3.80;99.90;;;;;;5073859;28;20123;-78
2023/03/22 04:52:42;;;;;;;2.97;2.45;;;3.80;99.90;;;;;;5074104;28;20021;-78
2023/03/22 04:55:08;;;;;;;5.05;2.40;;;3.60;99.90;;;;;;5073976;28;20032;-78
2023/03/22 04:57:35;;;;;;;6.45;2.65;;;4.20;99.90;;;;;;5075207;28;20066;-79
2023/03/22 05:00:01;;;;;;;3.40;2.75;;;3.50;99.90;;;;;;5073970;28;20120;-78
2023/03/22 05:02:26;;;;;;;6.18;2.40;;;2.40;99.90;;;;;;5075223;28;20059;-78
2023/03/22 05:04:52;;;;;;;2.08;1.80;;;3.60;99.90;;;;;;5075035;28;20032;-78
2023/03/22 05:07:18;;;;;;;7.07;2.15;;;3.70;99.90;;;;;;5073749;28;20035;-78
2023/03/22 05:09:44;;;;;;;2.22;1.70;;;3.90;99.90;;;;;;5073829;28;20052;-78
2023/03/22 05:12:09;;;;;;;3.05;2.38;;;3.70;99.90;;;;;;5073824;28;20492;-78
2023/03/22 05:14:35;;;;;;;6.45;2.45;;;3.80;99.90;;;;;;5073399;28;20109;-78
2023/03/22 05:17:02;;;;;;;4.18;2.83;;;3.60;99.90;;;;;;5073689;28;20074;-78
2023/03/22 05:19:28;;;;;;;5.43;2.88;;;4.00;99.90;;;;;;5073492;28;20457;-78
2023/03/22 05:21:57;;;;;;;5.68;4.18;;;3.90;99.90;;;;;;5073395;28;20020;-78
2023/03/22 05:24:23;;;;;;;2.88;2.30;;;3.80;99.90;;;;;;5074781;28;20019;-78
2023/03/22 05:26:52;;;;;;;3.60;2.25;;;3.80;99.90;;;;;;5073439;28;20496;-78
2023/03/22 05:29:18;;;;;;;3.45;2.60;;;5.20;99.90;;;;;;5072207;28;20028;-78
2023/03/22 05:31:44;;;;;;;4.32;3.67;;;3.90;99.90;;;;;;5074544;28;20044;-78
2023/03/22 05:34:10;;;;;;;3.83;2.63;;;4.10;99.90;;;;;;5073389;28;20017;-78
2023/03/22 05:36:36;;;;;;;3.90;2.70;;;3.90;99.90;;;;;;5073208;28;20021;-78
2023/03/22 05:39:02;;;;;;;3.53;2.70;;;4.10;99.90;;;;;;5073126;28;20553;-79
2023/03/22 05:41:30;;;;;;;4.90;2.70;;;4.30;99.90;;;;;;5074305;28;20032;-78
2023/03/22 05:43:56;;;;;;;8.70;5.55;;;4.20;99.90;;;;;;5073254;28;20032;-78
2023/03/22 05:46:22;;;;;;;6.95;3.95;;;4.70;99.90;;;;;;5073173;28;20035;-79
2023/03/22 05:48:48;;;;;;;6.82;3.22;;;4.40;99.90;;;;;;5074700;28;20028;-81
2023/03/22 05:51:18;;;;;;;5.32;3.50;;;4.50;99.90;;;;;;5075155;28;20136;-81
2023/03/22 05:53:47;;;;;;;7.22;3.08;;;5.10;99.90;;;;;;5078304;28;20024;-81
2023/03/22 05:56:14;;;;;;;6.57;3.47;;;5.00;99.90;;;;;;5078765;28;20028;-80
2023/03/22 05:58:41;;;;;;;3.88;3.05;;;4.70;99.90;;;;;;5087821;28;20025;-78
2023/03/22 06:01:11;;;;;;;5.07;3.13;;;4.70;99.90;;;;;;5092333;28;20009;-80
2023/03/22 06:03:39;;;;;;;11.77;3.40;;;4.80;99.90;;;;;;5095944;28;20058;-81
2023/03/22 06:06:09;;;;;;;11.55;3.00;;;5.10;99.90;;;;;;5099745;28;20029;-80
2023/03/22 06:08:38;;;;;;;6.65;3.30;;;5.00;99.90;;;;;;5082956;28;20020;-82
2023/03/22 06:11:06;;;;;;;3.92;2.97;;;5.70;99.90;;;;;;5098781;28;20068;-83
2023/03/22 06:13:34;;;;;;;3.08;2.67;;;5.00;99.90;;;;;;5099856;28;20025;-82
2023/03/22 06:16:01;;;;;;;5.07;3.03;;;5.20;99.90;;;;;;5097582;28;20025;-81
2023/03/22 06:18:28;;;;;;;3.45;2.55;;;5.30;99.90;;;;;;5098262;28;20016;-81
2023/03/22 06:20:54;;;;;;;6.80;2.88;;;5.00;99.90;;;;;;5098358;28;20035;-82
2023/03/22 06:23:20;;;;;;;8.10;3.05;;;5.60;99.90;;;;;;5082414;28;20017;-84
2023/03/22 06:25:46;;;;;;;4.63;2.85;;;5.50;99.90;;;;;;5098928;28;20027;-83
2023/03/22 06:28:13;;;;;;;4.78;3.05;;;5.70;99.90;;;;;;5098996;28;20045;-84
2023/03/22 06:30:39;;;;;;;3.65;3.17;;;5.90;99.90;;;;;;5098895;28;20354;-84
2023/03/22 06:33:06;;;;;;;3.65;2.55;;;4.70;99.90;;;;;;5099358;28;20040;-82
2023/03/22 06:35:32;;;;;;;6.53;2.50;;;6.00;99.90;;;;;;5099098;28;20013;-83
2023/03/22 06:48:20;;;;;;;3.88;2.63;;;6.50;99.90;;;;;;5792882;22;20028;-82
2023/03/22 06:50:47;;;;;;;3.67;3.05;;;6.70;99.90;;;;;;5080415;28;20143;-83
2023/03/22 07:18:58;;;;;;;7.95;2.80;;;7.60;99.90;;;;;;5046424;28;20083;-81
2023/03/22 07:21:26;;;;;;;10.23;3.80;;;8.20;99.90;;;;;;5047593;28;20037;-82
2023/03/22 07:24:03;;;;;;;4.40;3.08;;;7.80;99.90;;;;;;5046871;28;20025;-81
2023/03/22 07:27:01;;;;;;;8.57;2.72;;;8.10;99.90;;;;;;5030633;28;20026;-81
2023/03/22 07:52:41;;;;;;;3.72;2.55;;;8.80;99.90;;;;;;5411945;22;20060;-78
2023/03/22 07:55:08;;;;;;;3.58;2.67;;;9.00;99.90;;;;;;5036213;28;20026;-78
2023/03/22 07:57:35;;;;;;;10.93;3.05;;;9.00;99.90;;;;;;5035767;28;20032;-79
2023/03/22 08:00:00;;;;;;;4.50;2.85;;;9.00;99.90;;;;;;5018429;28;20597;-78
2023/03/22 08:02:26;;;;;;;4.55;3.05;;;9.10;99.90;;;;;;5018455;28;20112;-78
2023/03/22 08:04:53;;;;;;;4.85;2.65;;;9.20;99.90;;;;;;5018570;28;20501;-79
2023/03/22 08:07:19;;;;;;;3.90;2.25;;;9.30;99.90;;;;;;5035637;28;20033;-79
2023/03/22 08:09:45;;;;;;;3.42;2.83;;;9.40;99.90;;;;;;5018913;28;20025;-80
2023/03/22 08:12:11;;;;;;;3.03;2.58;;;9.50;99.90;;;;;;5018293;28;20116;-79
2023/03/22 08:14:37;;;;;;;7.80;3.10;;;9.50;99.90;;;;;;5017695;28;20028;-79
2023/03/22 08:17:05;;;;;;;9.00;2.97;;;9.70;99.90;;;;;;5018519;28;20401;-79
2023/03/22 08:19:32;;;;;;;7.50;3.10;;;9.80;99.90;;;;;;5035269;28;20022;-78
2023/03/22 08:21:58;;;;;;;3.75;2.92;;;10.00;99.90;;;;;;5035686;28;20029;-78
2023/03/22 08:24:25;;;;;;;4.82;2.85;;;10.10;99.90;;;;;;5017206;28;20021;-79
2023/03/22 08:26:51;;;;;;;4.97;2.58;;;10.30;99.90;;;;;;5035253;28;20045;-79
2023/03/22 08:29:17;;;;;;;3.67;2.70;;;10.50;99.90;;;;;;5017029;28;20084;-78
2023/03/22 08:31:44;;;;;;;6.30;2.63;;;10.70;99.90;;;;;;5017545;28;20031;-79
2023/03/22 08:34:10;;;;;;;2.85;2.47;;;10.80;99.90;;;;;;5017546;28;20057;-78
2023/03/22 08:36:37;;;;;;;5.22;2.20;;;11.00;99.90;;;;;;5017614;28;20071;-78
2023/03/22 08:39:03;;;;;;;8.50;3.47;;;11.10;99.90;;;;;;5017916;28;20102;-79
2023/03/22 08:41:29;;;;;;;5.43;3.67;;;11.20;99.90;;;;;;5018238;28;20045;-78
2023/03/22 08:43:56;;;;;;;8.95;5.22;;;11.60;99.90;;;;;;5017484;28;20450;-79
2023/03/22 08:46:22;;;;;;;7.20;4.40;;;11.90;99.90;;;;;;5035594;28;20021;-80
2023/03/22 08:48:49;;;;;;;8.63;3.20;;;12.20;99.90;;;;;;5035612;28;20040;-80
2023/03/22 08:51:17;;;;;;;4.32;2.55;;;12.20;99.20;;;;;;5059900;22;20136;-83
2023/03/22 08:53:42;;;;;;;6.47;2.22;;;12.50;98.50;;;;;;5022938;28;20021;-81
2023/03/22 08:56:08;;;;;;;2.38;2.17;;;12.60;97.60;;;;;;5023112;28;20026;-80
2023/03/22 08:58:35;;;;;;;3.28;2.28;;;12.60;97.00;;;;;;5021776;28;20030;-81
2023/03/22 09:01:01;;;;;;;2.70;2.17;;;12.60;96.30;;;;;;5040781;28;20036;-81
2023/03/22 09:03:27;;;;;;;4.32;2.55;;;12.70;96.90;;;;;;5022553;28;20437;-80
2023/03/22 09:05:52;;;;;;;5.95;1.83;;;12.80;97.00;;;;;;5022440;28;20083;-80
2023/03/22 09:08:18;;;;;;;4.65;2.88;;;13.00;97.00;;;;;;5021461;28;20033;-80
2023/03/22 09:10:46;;;;;;;4.68;2.75;;;13.30;97.50;;;;;;5022014;28;20032;-79
2023/03/22 09:13:13;;;;;;;1.75;1.60;;;13.50;97.00;;;;;;5040653;28;20024;-81
2023/03/22 09:15:39;;;;;;;2.25;1.90;;;13.60;96.20;;;;;;5040384;28;20024;-82
2023/03/22 09:18:05;;;;;;;5.32;3.67;;;13.60;96.20;;;;;;5022440;28;20037;-81
2023/03/22 09:20:30;;;;;;;2.38;2.13;;;13.70;96.10;;;;;;5022237;28;20120;-79
2023/03/22 09:22:56;;;;;;;3.10;2.13;;;13.80;95.70;;;;;;5039188;28;20398;-82
2023/03/22 09:25:22;;;;;;;4.43;2.38;;;13.90;94.80;;;;;;5020940;28;20030;-85
2023/03/22 09:27:48;;;;;;;6.28;1.77;;;14.10;95.00;;;;;;5038868;28;20030;-83
2023/03/22 09:30:14;;;;;;;4.30;2.20;;;14.30;93.80;;;;;;5020940;28;20025;-82
2023/03/22 09:32:40;;;;;;;5.05;1.88;;;14.50;93.30;;;;;;5021770;28;20091;-81
2023/03/22 09:35:06;;;;;;;3.47;1.95;;;14.50;93.00;;;;;;5021599;28;20097;-80
2023/03/22 09:37:31;;;;;;;3.72;1.98;;;14.60;93.00;;;;;;5039215;28;20032;-81
2023/03/22 09:39:57;;;;;;;4.25;2.63;;;14.70;92.60;;;;;;5021109;28;20053;-84
2023/03/22 09:42:37;;;;;;;4.47;1.77;;;14.80;91.80;;;;;;5022089;28;20033;-80
2023/03/22 09:45:05;;;;;;;3.70;2.22;;;14.90;92.70;;;;;;5021568;28;20029;-82
2023/03/22 09:47:39;;;;;;;3.10;2.35;;;15.00;91.90;;;;;;5022032;28;20112;-83
2023/03/22 09:50:17;;;;;;;3.87;2.50;;;15.00;91.60;;;;;;5038102;28;20049;-82
2023/03/22 09:52:43;;;;;;;4.70;1.65;;;15.20;91.60;;;;;;5022286;28;20022;-83
2023/03/22 09:55:24;;;;;;;4.65;2.33;;;15.30;90.80;;;;;;5020741;28;20025;-82
2023/03/22 09:58:01;;;;;;;2.97;2.33;;;15.50;90.60;;;;;;5020708;28;20030;-82
2023/03/22 10:00:33;;;;;;;2.70;2.50;;;15.70;90.00;;;;;;5038994;28;20482;-84
2023/03/22 10:03:18;;;;;;;2.78;2.15;;;15.90;90.40;;;;;;5036544;28;20038;-82
2023/03/22 10:06:01;;;;;;;4.38;2.67;;;16.00;86.90;;;;;;5037911;28;20031;-84
2023/03/22 10:08:45;;;;;;;4.72;3.22;;;16.20;85.90;;;;;;5037916;28;20040;-82
2023/03/22 10:11:29;;;;;;;9.38;2.42;;;16.40;84.40;;;;;;5036927;28;20536;-82
2023/03/22 10:13:55;;;;;;;2.17;1.90;;;16.50;80.10;;;;;;5038380;28;20033;-80
2023/03/22 10:16:33;;;;;;;7.78;2.17;;;16.60;77.60;;;;;;5035312;28;20029;-83
2023/03/22 10:19:17;;;;;;;3.92;2.60;;;16.80;77.90;;;;;;5002942;28;20026;-86
2023/03/22 10:21:47;;;;;;;4.57;2.90;;;16.90;77.60;;;;;;5020780;28;20032;-82
2023/03/22 10:24:20;;;;;;;6.43;2.25;;;16.90;75.70;;;;;;5019132;28;20117;-80
2023/03/22 10:26:47;;;;;;;5.95;3.05;;;17.00;75.80;;;;;;5037635;28;20101;-79
2023/03/22 10:29:26;;;;;;;6.90;2.85;;;17.20;75.70;;;;;;5038182;28;20021;-83
2023/03/22 10:31:53;;;;;;;3.28;2.70;;;17.30;73.80;;;;;;5019882;28;20021;-84
2023/03/22 10:34:30;;;;;;;7.47;5.00;;;17.30;72.80;;;;;;5019307;28;20375;-83
2023/03/22 10:36:59;;;;;;;5.50;3.67;;;17.30;73.60;;;;;;5038385;28;20112;-84
2023/03/22 10:39:33;;;;;;;3.08;2.75;;;17.40;72.40;;;;;;5019632;28;20401;-82
2023/03/22 10:42:06;;;;;;;6.75;4.28;;;17.40;72.40;;;;;;5019825;28;20089;-83
2023/03/22 10:44:41;;;;;;;6.45;3.97;;;17.50;74.30;;;;;;5020527;28;20059;-84
2023/03/22 10:47:10;;;;;;;4.45;3.03;;;17.60;72.60;;;;;;5020406;28;20026;-81
2023/03/22 10:49:48;;;;;;;3.42;3.05;;;17.70;72.40;;;;;;5019465;28;20032;-83
2023/03/22 10:52:29;;;;;;;1.85;1.60;;;17.70;72.30;;;;;;5038467;28;20029;-83
2023/03/22 10:54:56;;;;;;;3.65;1.80;;;17.70;71.00;;;;;;5027571;28;20268;-82
2023/03/22 10:57:22;;;;;;;2.20;1.92;;;17.80;69.20;;;;;;5032532;28;20102;-82
2023/03/22 10:59:55;;;;;;;3.60;1.70;;;17.70;69.30;;;;;;5032579;28;20009;-84
2023/03/22 11:02:30;;;;;;;10.18;2.20;;;17.80;68.70;;;;;;5032891;28;20029;-81
2023/03/22 11:04:58;;;;;;;4.95;2.00;;;17.90;68.50;;;;;;5025036;28;20064;-80
2023/03/22 11:07:37;;;;;;;2.72;1.92;;;18.10;68.00;;;;;;5019923;28;20505;-80
2023/03/22 11:10:09;;;;;;;2.38;1.73;;;18.10;67.00;;;;;;5019911;28;20065;-79
2023/03/22 11:12:36;;;;;;;3.15;2.00;;;18.00;68.30;;;;;;5036195;28;20100;-81
2023/03/22 11:15:04;;;;;;;2.00;1.80;;;18.00;68.50;;;;;;5018093;28;20021;-80
2023/03/22 11:17:30;;;;;;;2.28;1.92;;;18.00;67.30;;;;;;5016147;28;20026;-83
2023/03/22 11:20:05;;;;;;;2.55;1.90;;;18.10;68.60;;;;;;5017243;28;20029;-81
2023/03/22 11:22:40;;;;;;;3.28;2.35;;;18.20;67.70;;;;;;5017123;28;20095;-80
2023/03/22 11:25:30;;;;;;;2.40;1.88;;;18.40;67.40;;;;;;5016654;28;20128;-82
2023/03/22 11:28:15;;;;;;;2.38;1.90;;;18.40;64.80;;;;;;5003594;28;20068;-84
2023/03/22 11:31:01;;;;;;;3.53;1.80;;;18.40;64.70;;;;;;5017200;28;20021;-84
2023/03/22 11:33:27;;;;;;;1.55;1.45;;;18.20;64.70;;;;;;5017817;28;20022;-83
2023/03/22 11:35:58;;;;;;;2.45;2.03;;;18.30;64.80;;;;;;5017568;28;20025;-84
2023/03/22 11:38:44;;;;;;;3.78;1.80;;;18.30;65.50;;;;;;5017996;28;20031;-86
2023/03/22 11:41:23;;;;;;;1.90;1.70;;;18.30;64.40;;;;;;5018458;28;20445;-83
2023/03/22 11:44:00;;;;;;;3.40;1.88;;;18.40;64.70;;;;;;5018485;28;20036;-82
2023/03/22 11:46:26;;;;;;;1.67;1.02;;;18.50;63.00;;;;;;5018118;28;20061;-83
2023/03/22 11:48:57;;;;;;;1.88;1.38;;;18.60;63.80;;;;;;5017939;28;20036;-84
2023/03/22 11:51:29;;;;;;;2.80;1.85;;;18.80;65.00;;;;;;5035323;28;20045;-82
2023/03/22 11:54:31;;;;;;;5.97;1.92;;;18.60;64.40;;;;;;5035792;28;20022;-82
2023/03/22 11:57:00;;;;;;;2.03;1.80;;;18.80;64.50;;;;;;5018345;28;20025;-83
2023/03/22 11:59:36;;;;;;;2.00;1.60;;;18.90;63.30;;;;;;5018773;28;20059;-83
2023/03/22 12:03:01;;;;;;;2.17;1.50;;;18.80;62.70;;;;;;5018584;28;20120;-82
2023/03/22 12:05:30;;;;;;;1.15;1.10;;;18.90;62.40;;;;;;4935521;29;20155;-85
2023/03/22 12:08:11;;;;;;;2.08;1.50;;;18.90;61.60;;;;;;4921096;29;20028;-82
2023/03/22 12:10:48;;;;;;;1.42;1.30;;;19.00;61.50;;;;;;4993677;28;20030;-81
2023/03/22 12:13:20;;;;;;;2.28;1.58;;;19.10;60.30;;;;;;5037522;28;20017;-81
2023/03/22 12:15:59;;;;;;;1.95;1.27;;;19.10;59.20;;;;;;5019456;28;20026;-81
2023/03/22 12:18:31;;;;;;;1.90;1.60;;;19.10;60.30;;;;;;5019802;28;20065;-84
2023/03/22 12:20:59;;;;;;;3.55;1.80;;;19.10;59.80;;;;;;5019222;28;20120;-82
2023/03/22 12:23:31;;;;;;;3.95;1.30;;;19.30;60.50;;;;;;5020154;28;20105;-82
2023/03/22 12:26:14;;;;;;;3.78;1.92;;;19.30;60.60;;;;;;5017841;28;20037;-83
2023/03/22 12:28:57;;;;;;;4.25;1.83;;;19.40;61.00;;;;;;5036979;28;20025;-82
2023/03/22 12:31:41;;;;;;;1.77;1.48;;;19.30;60.90;;;;;;5019926;28;20026;-83
2023/03/22 12:34:14;;;;;;;1.92;1.70;;;19.30;60.50;;;;;;5018497;28;20089;-81
2023/03/22 12:36:44;;;;;;;1.48;1.30;;;19.20;58.50;;;;;;5018408;28;20021;-83
2023/03/22 12:39:45;;;;;;;1.20;1.10;;;19.20;59.30;;;;;;5020307;28;20060;-83
2023/03/22 12:42:35;;;;;;;6.40;1.50;;;19.00;59.90;;;;;;5022229;28;20033;-81
2023/03/22 12:45:12;;;;;;;1.52;0.98;;;19.30;59.60;;;;;;5022666;28;20026;-81
2023/03/22 12:47:41;;;;;;;1.38;1.27;;;19.40;57.40;;;;;;5020143;28;20030;-82
2023/03/22 12:50:30;;;;;;;1.10;1.00;;;19.60;56.80;;;;;;5037457;28;20032;-80
2023/03/22 12:52:57;;;;;;;1.27;1.00;;;19.70;56.40;;;;;;4981910;28;20029;-81
2023/03/22 12:55:29;;;;;;;2.95;1.10;;;19.70;55.20;;;;;;5036275;28;20501;-81
2023/03/22 12:57:56;;;;;;;4.53;1.80;;;19.80;55.30;;;;;;5019852;28;20044;-80
2023/03/22 13:00:35;;;;;;;2.08;1.75;;;19.90;55.70;;;;;;5020233;28;20124;-81
2023/03/22 13:03:26;;;;;;;1.17;1.02;;;19.80;54.90;;;;;;5018500;28;20033;-81
2023/03/22 13:06:06;;;;;;;1.08;0.82;;;19.80;55.30;;;;;;5020644;28;20029;-83
2023/03/22 13:09:15;;;;;;;1.63;1.48;;;19.70;55.20;;;;;;5020655;28;20025;-82
2023/03/22 13:12:08;;;;;;;2.35;1.30;;;19.70;56.00;;;;;;5020048;28;20022;-82
2023/03/22 13:14:51;;;;;;;2.72;1.52;;;19.80;55.70;;;;;;5036175;28;20030;-82
2023/03/22 13:17:23;;;;;;;1.00;1.00;;;19.80;55.50;;;;;;5036579;28;20632;-83
2023/03/22 13:19:54;;;;;;;1.27;1.17;;;19.80;56.00;;;;;;5018876;28;20025;-83
2023/03/22 13:22:27;;;;;;;1.25;1.08;;;19.80;56.00;;;;;;5019198;28;20053;-83
2023/03/22 13:24:58;;;;;;;0.80;0.70;;;19.90;55.60;;;;;;5035971;28;20029;-83
2023/03/22 13:27:34;;;;;;;2.63;1.40;;;20.00;56.50;;;;;;5018011;28;20112;-83
2023/03/22 13:30:03;;;;;;;2.03;1.00;;;19.90;56.50;;;;;;5018288;28;20022;-84
2023/03/22 13:32:32;;;;;;;2.17;1.27;;;19.80;56.60;;;;;;5018987;28;20049;-85
2023/03/22 13:34:59;;;;;;;1.65;1.08;;;19.80;55.60;;;;;;5019237;28;20037;-84
2023/03/22 13:37:46;;;;;;;2.50;1.63;;;19.80;56.10;;;;;;5017865;28;20029;-83
2023/03/22 13:40:34;;;;;;;1.88;1.20;;;19.80;55.90;;;;;;5036522;28;20029;-81
2023/03/22 13:43:49;;;;;;;1.25;1.15;;;19.70;56.30;;;;;;5018813;28;20501;-83
2023/03/22 13:46:20;;;;;;;5.72;1.15;;;19.80;56.80;;;;;;5011968;28;20448;-82
2023/03/22 13:48:46;;;;;;;6.28;1.13;;;19.90;55.30;;;;;;5018066;28;20025;-82
2023/03/22 13:51:30;;;;;;;0.98;0.90;;;19.90;53.90;;;;;;5016433;28;20038;-83
2023/03/22 13:54:12;;;;;;;4.05;1.00;;;19.90;54.60;;;;;;5017792;28;20505;-82
2023/03/22 13:56:43;;;;;;;2.47;1.00;;;19.80;54.70;;;;;;5017257;28;20025;-83
2023/03/22 13:59:52;;;;;;;1.77;1.30;;;19.70;55.20;;;;;;5035529;28;20101;-80
2023/03/22 14:02:34;;;;;;;2.45;1.10;;;19.80;55.60;;;;;;5019815;28;20064;-82
2023/03/22 14:05:13;;;;;;;2.35;1.50;;;19.80;54.80;;;;;;5019356;28;20056;-83
2023/03/22 14:07:51;;;;;;;2.03;1.20;;;19.80;55.70;;;;;;5019825;28;20032;-81
2023/03/22 14:10:57;;;;;;;1.48;1.05;;;19.80;55.10;;;;;;5018748;28;20049;-83
2023/03/22 14:13:33;;;;;;;1.17;1.05;;;19.80;55.70;;;;;;5018419;28;20032;-82
2023/03/22 14:16:21;;;;;;;1.23;0.90;;;19.80;55.60;;;;;;5018666;28;20025;-83
2023/03/22 14:18:48;;;;;;;1.90;1.30;;;19.80;55.90;;;;;;5017116;28;20508;-83
2023/03/22 14:21:33;;;;;;;1.13;0.90;;;19.80;55.80;;;;;;5017229;28;20052;-82